sensor_id;sensor_type;location;lat;lon;timestamp;pressure;altitude;pressure_sealevel;temperature;humidity
15382;BME280;7789;51.364;12.358;2023-05-23T00:02:36;99866.31;;;20.28;73.31
15382;BME280;7789;51.364;12.358;2023-05-23T00:07:43;99857.13;;;20.24;73.42
15382;BME280;7789;51.364;12.358;2023-05-23T00:12:50;99860.78;;;20.23;73.75
15382;BME280;7789;51.364;12.358;2023-05-23T00:18:02;99857.53;;;20.21;74.24
15382;BME280;7789;51.364;12.358;2023-05-23T00:23:10;99857.53;;;20.21;75.59
15382;BME280;7789;51.364;12.358;2023-05-23T00:28:23;99853.63;;;20.17;74.65
15382;BME280;7789;51.364;12.358;2023-05-23T00:33:32;99848.31;;;20.17;75.20
15382;BME280;7789;51.364;12.358;2023-05-23T00:38:43;99860.16;;;20.15;75.77
15382;BME280;7789;51.364;12.358;2023-05-23T00:43:49;99860.72;;;20.10;76.12
15382;BME280;7789;51.364;12.358;2023-05-23T00:48:55;99861.53;;;20.04;77.23
15382;BME280;7789;51.364;12.358;2023-05-23T00:54:06;99861.91;;;20.01;78.85
15382;BME280;7789;51.364;12.358;2023-05-23T00:59:11;99867.59;;;19.98;78.36
15382;BME280;7789;51.364;12.358;2023-05-23T01:04:18;99859.84;;;19.97;78.15
15382;BME280;7789;51.364;12.358;2023-05-23T01:09:29;99854.31;;;19.92;78.85
15382;BME280;7789;51.364;12.358;2023-05-23T01:14:43;99835.50;;;19.87;80.81
15382;BME280;7789;51.364;12.358;2023-05-23T01:20:02;99835.28;;;19.82;82.39
15382;BME280;7789;51.364;12.358;2023-05-23T01:25:27;99835.25;;;19.75;84.12
15382;BME280;7789;51.364;12.358;2023-05-23T01:30:39;99848.91;;;19.72;83.69
15382;BME280;7789;51.364;12.358;2023-05-23T01:35:51;99860.53;;;19.71;84.06
15382;BME280;7789;51.364;12.358;2023-05-23T01:41:07;99850.91;;;19.64;84.88
15382;BME280;7789;51.364;12.358;2023-05-23T01:46:16;99863.72;;;19.60;87.22
15382;BME280;7789;51.364;12.358;2023-05-23T01:51:22;99863.50;;;19.55;87.77
15382;BME280;7789;51.364;12.358;2023-05-23T01:56:29;99875.69;;;19.50;88.67
15382;BME280;7789;51.364;12.358;2023-05-23T02:01:39;99859.16;;;19.48;90.71
15382;BME280;7789;51.364;12.358;2023-05-23T02:06:48;99864.25;;;19.43;91.28
15382;BME280;7789;51.364;12.358;2023-05-23T02:11:56;99870.13;;;19.38;93.68
15382;BME280;7789;51.364;12.358;2023-05-23T02:17:05;99861.09;;;19.33;95.28
15382;BME280;7789;51.364;12.358;2023-05-23T02:22:12;99863.53;;;19.28;96.85
15382;BME280;7789;51.364;12.358;2023-05-23T02:27:25;99872.22;;;19.22;98.81
15382;BME280;7789;51.364;12.358;2023-05-23T02:32:37;99866.88;;;19.15;100.00
15382;BME280;7789;51.364;12.358;2023-05-23T02:37:47;99872.81;;;19.17;100.00
15382;BME280;7789;51.364;12.358;2023-05-23T02:42:52;99869.97;;;19.19;100.00
15382;BME280;7789;51.364;12.358;2023-05-23T02:48:09;99880.38;;;19.20;100.00
15382;BME280;7789;51.364;12.358;2023-05-23T02:53:14;99875.88;;;19.21;100.00
15382;BME280;7789;51.364;12.358;2023-05-23T02:58:20;99884.06;;;19.19;100.00
15382;BME280;7789;51.364;12.358;2023-05-23T03:03:28;99876.50;;;19.23;100.00
15382;BME280;7789;51.364;12.358;2023-05-23T03:08:34;99874.47;;;19.18;100.00
15382;BME280;7789;51.364;12.358;2023-05-23T03:13:39;99880.78;;;19.17;100.00
15382;BME280;7789;51.364;12.358;2023-05-23T03:18:46;99874.47;;;19.18;100.00
15382;BME280;7789;51.364;12.358;2023-05-23T03:23:56;99880.28;;;19.14;100.00
15382;BME280;7789;51.364;12.358;2023-05-23T03:29:06;99880.69;;;19.11;100.00
15382;BME280;7789;51.364;12.358;2023-05-23T03:34:17;99884.75;;;19.07;100.00
15382;BME280;7789;51.364;12.358;2023-05-23T03:39:25;99888.38;;;19.06;100.00
15382;BME280;7789;51.364;12.358;2023-05-23T03:44:29;99900.81;;;19.05;100.00
15382;BME280;7789;51.364;12.358;2023-05-23T03:49:38;99908.59;;;19.07;100.00
15382;BME280;7789;51.364;12.358;2023-05-23T03:54:43;99902.06;;;19.09;100.00
15382;BME280;7789;51.364;12.358;2023-05-23T03:59:50;99898.84;;;19.14;100.00
15382;BME280;7789;51.364;12.358;2023-05-23T04:05:00;99906.28;;;19.18;100.00
15382;BME280;7789;51.364;12.358;2023-05-23T04:10:08;99917.06;;;19.17;100.00
15382;BME280;7789;51.364;12.358;2023-05-23T04:15:18;99924.19;;;19.16;100.00
15382;BME280;7789;51.364;12.358;2023-05-23T04:20:29;99918.50;;;19.19;100.00
15382;BME280;7789;51.364;12.358;2023-05-23T04:25:36;99927.88;;;19.22;100.00
15382;BME280;7789;51.364;12.358;2023-05-23T04:30:59;99929.34;;;19.24;100.00
15382;BME280;7789;51.364;12.358;2023-05-23T04:36:16;99936.06;;;19.20;100.00
15382;BME280;7789;51.364;12.358;2023-05-23T04:41:22;99936.50;;;19.24;100.00
15382;BME280;7789;51.364;12.358;2023-05-23T04:46:26;99941.38;;;19.48;100.00
15382;BME280;7789;51.364;12.358;2023-05-23T04:51:33;99940.69;;;20.01;100.00
15382;BME280;7789;51.364;12.358;2023-05-23T04:56:38;99942.34;;;21.60;100.00
15382;BME280;7789;51.364;12.358;2023-05-23T05:01:45;99948.91;;;22.54;97.00
15382;BME280;7789;51.364;12.358;2023-05-23T05:06:56;99960.31;;;23.04;92.17
15382;BME280;7789;51.364;12.358;2023-05-23T05:12:11;99953.00;;;24.34;82.20
15382;BME280;7789;51.364;12.358;2023-05-23T05:17:17;99959.22;;;25.86;74.74
15382;BME280;7789;51.364;12.358;2023-05-23T05:22:28;99955.63;;;25.92;71.35
15382;BME280;7789;51.364;12.358;2023-05-23T05:27:33;99956.72;;;24.98;74.32
15382;BME280;7789;51.364;12.358;2023-05-23T05:32:46;99964.81;;;24.44;75.21
15382;BME280;7789;51.364;12.358;2023-05-23T05:38:21;99964.28;;;24.00;76.49
15382;BME280;7789;51.364;12.358;2023-05-23T05:43:39;99965.38;;;23.50;78.94
15382;BME280;7789;51.364;12.358;2023-05-23T05:48:45;99974.03;;;23.14;79.76
15382;BME280;7789;51.364;12.358;2023-05-23T05:53:51;99978.50;;;22.83;80.29
15382;BME280;7789;51.364;12.358;2023-05-23T05:58:57;99978.66;;;22.51;82.04
15382;BME280;7789;51.364;12.358;2023-05-23T06:04:02;99986.28;;;22.41;82.38
15382;BME280;7789;51.364;12.358;2023-05-23T06:09:09;99992.84;;;22.25;83.06
15382;BME280;7789;51.364;12.358;2023-05-23T06:14:17;99988.81;;;22.03;84.54
15382;BME280;7789;51.364;12.358;2023-05-23T06:19:28;99985.38;;;21.77;85.89
15382;BME280;7789;51.364;12.358;2023-05-23T06:24:35;99987.22;;;21.63;87.37
15382;BME280;7789;51.364;12.358;2023-05-23T06:29:56;99985.13;;;21.33;88.86
15382;BME280;7789;51.364;12.358;2023-05-23T06:35:08;99995.56;;;21.21;90.86
15382;BME280;7789;51.364;12.358;2023-05-23T06:40:17;99995.13;;;21.05;92.20
15382;BME280;7789;51.364;12.358;2023-05-23T06:45:35;100012.19;;;20.83;93.15
15382;BME280;7789;51.364;12.358;2023-05-23T06:50:42;100020.44;;;20.48;91.96
15382;BME280;7789;51.364;12.358;2023-05-23T06:55:56;100025.00;;;20.26;91.92
15382;BME280;7789;51.364;12.358;2023-05-23T07:01:09;100037.19;;;20.14;91.60
15382;BME280;7789;51.364;12.358;2023-05-23T07:06:16;100034.00;;;19.98;90.78
15382;BME280;7789;51.364;12.358;2023-05-23T07:11:23;100035.75;;;19.91;90.24
15382;BME280;7789;51.364;12.358;2023-05-23T07:16:30;100028.41;;;19.86;88.79
15382;BME280;7789;51.364;12.358;2023-05-23T07:21:36;100030.38;;;19.78;87.80
15382;BME280;7789;51.364;12.358;2023-05-23T07:26:47;100036.94;;;19.82;87.64
15382;BME280;7789;51.364;12.358;2023-05-23T07:31:53;100034.50;;;19.87;87.55
15382;BME280;7789;51.364;12.358;2023-05-23T07:36:57;100046.09;;;19.79;86.62
15382;BME280;7789;51.364;12.358;2023-05-23T07:42:05;100044.66;;;19.77;87.11
15382;BME280;7789;51.364;12.358;2023-05-23T07:47:11;100041.41;;;19.81;86.99
15382;BME280;7789;51.364;12.358;2023-05-23T07:52:29;100050.81;;;19.84;87.50
15382;BME280;7789;51.364;12.358;2023-05-23T07:57:42;100062.84;;;19.80;87.79
15382;BME280;7789;51.364;12.358;2023-05-23T08:02:47;100053.63;;;19.76;88.20
15382;BME280;7789;51.364;12.358;2023-05-23T08:07:54;100059.94;;;19.75;88.02
15382;BME280;7789;51.364;12.358;2023-05-23T08:13:08;100054.44;;;19.76;88.10
15382;BME280;7789;51.364;12.358;2023-05-23T08:18:15;100064.47;;;19.81;88.10
15382;BME280;7789;51.364;12.358;2023-05-23T08:23:20;100075.31;;;19.86;88.24
15382;BME280;7789;51.364;12.358;2023-05-23T08:28:27;100085.13;;;19.85;87.90
15382;BME280;7789;51.364;12.358;2023-05-23T08:33:33;100079.44;;;19.88;87.96
15382;BME280;7789;51.364;12.358;2023-05-23T08:38:40;100076.22;;;19.93;87.40
15382;BME280;7789;51.364;12.358;2023-05-23T08:43:56;100077.88;;;19.94;87.35
15382;BME280;7789;51.364;12.358;2023-05-23T08:49:02;100076.06;;;20.01;87.06
15382;BME280;7789;51.364;12.358;2023-05-23T08:54:09;100087.22;;;20.11;86.93
15382;BME280;7789;51.364;12.358;2023-05-23T08:59:34;100088.31;;;20.23;86.18
15382;BME280;7789;51.364;12.358;2023-05-23T09:04:44;100081.00;;;20.31;85.58
15382;BME280;7789;51.364;12.358;2023-05-23T09:09:52;100086.75;;;20.35;85.40
15382;BME280;7789;51.364;12.358;2023-05-23T09:15:01;100096.22;;;20.44;85.42
15382;BME280;7789;51.364;12.358;2023-05-23T09:20:11;100100.88;;;20.42;85.78
15382;BME280;7789;51.364;12.358;2023-05-23T09:25:25;100095.78;;;20.40;85.84
15382;BME280;7789;51.364;12.358;2023-05-23T09:30:33;100109.47;;;20.37;86.60
15382;BME280;7789;51.364;12.358;2023-05-23T09:35:43;100104.53;;;20.34;86.96
15382;BME280;7789;51.364;12.358;2023-05-23T09:40:53;100107.16;;;20.28;86.44
15382;BME280;7789;51.364;12.358;2023-05-23T09:46:06;100109.94;;;20.20;88.19
15382;BME280;7789;51.364;12.358;2023-05-23T09:51:11;100111.34;;;20.16;87.98
15382;BME280;7789;51.364;12.358;2023-05-23T09:56:21;100112.31;;;20.08;90.25
15382;BME280;7789;51.364;12.358;2023-05-23T10:01:36;100109.13;;;19.98;92.36
15382;BME280;7789;51.364;12.358;2023-05-23T10:06:50;100113.56;;;19.91;93.95
15382;BME280;7789;51.364;12.358;2023-05-23T10:18:08;100113.25;;;19.80;96.00
15382;BME280;7789;51.364;12.358;2023-05-23T10:23:14;100113.63;;;19.77;95.21
15382;BME280;7789;51.364;12.358;2023-05-23T10:28:28;100115.06;;;19.79;95.56
15382;BME280;7789;51.364;12.358;2023-05-23T10:33:39;100104.72;;;19.84;96.16
15382;BME280;7789;51.364;12.358;2023-05-23T10:38:54;100109.59;;;19.81;95.31
15382;BME280;7789;51.364;12.358;2023-05-23T10:44:08;100117.31;;;19.76;96.13
15382;BME280;7789;51.364;12.358;2023-05-23T10:49:45;100119.69;;;19.71;97.38
15382;BME280;7789;51.364;12.358;2023-05-23T10:54:59;100121.84;;;19.61;96.56
15382;BME280;7789;51.364;12.358;2023-05-23T11:00:11;100127.34;;;19.59;94.98
15382;BME280;7789;51.364;12.358;2023-05-23T11:05:20;100136.38;;;19.65;95.08
15382;BME280;7789;51.364;12.358;2023-05-23T11:10:30;100136.59;;;19.91;93.13
15382;BME280;7789;51.364;12.358;2023-05-23T11:15:41;100140.38;;;20.17;90.13
15382;BME280;7789;51.364;12.358;2023-05-23T11:21:17;100145.47;;;20.19;89.06
15382;BME280;7789;51.364;12.358;2023-05-23T11:26:33;100149.53;;;20.15;88.20
15382;BME280;7789;51.364;12.358;2023-05-23T11:31:40;100161.16;;;20.14;87.25
15382;BME280;7789;51.364;12.358;2023-05-23T11:36:52;100161.00;;;20.01;88.65
15382;BME280;7789;51.364;12.358;2023-05-23T11:42:04;100167.41;;;19.85;89.40
15382;BME280;7789;51.364;12.358;2023-05-23T11:47:10;100166.88;;;19.75;88.75
15382;BME280;7789;51.364;12.358;2023-05-23T11:52:20;100172.19;;;19.75;90.85
15382;BME280;7789;51.364;12.358;2023-05-23T11:57:30;100170.31;;;19.69;90.30
15382;BME280;7789;51.364;12.358;2023-05-23T12:02:37;100178.09;;;19.56;91.65
15382;BME280;7789;51.364;12.358;2023-05-23T12:07:46;100188.56;;;19.43;94.23
15382;BME280;7789;51.364;12.358;2023-05-23T12:12:53;100193.22;;;19.41;94.78
15382;BME280;7789;51.364;12.358;2023-05-23T12:17:59;100190.50;;;19.35;95.13
15382;BME280;7789;51.364;12.358;2023-05-23T12:23:05;100191.78;;;19.24;96.17
15382;BME280;7789;51.364;12.358;2023-05-23T12:28:34;100187.88;;;19.20;97.57
15382;BME280;7789;51.364;12.358;2023-05-23T12:33:41;100192.88;;;19.15;97.41
15382;BME280;7789;51.364;12.358;2023-05-23T12:39:01;100198.19;;;19.15;98.04
15382;BME280;7789;51.364;12.358;2023-05-23T12:44:06;100198.66;;;19.19;94.83
15382;BME280;7789;51.364;12.358;2023-05-23T12:49:13;100195.72;;;19.28;94.02
15382;BME280;7789;51.364;12.358;2023-05-23T12:54:26;100210.09;;;19.19;91.62
15382;BME280;7789;51.364;12.358;2023-05-23T12:59:31;100194.34;;;19.18;91.67
15382;BME280;7789;51.364;12.358;2023-05-23T13:04:42;100216.44;;;19.10;90.56
15382;BME280;7789;51.364;12.358;2023-05-23T13:10:10;100215.34;;;19.05;90.95
15382;BME280;7789;51.364;12.358;2023-05-23T13:15:20;100223.69;;;19.02;90.92
15382;BME280;7789;51.364;12.358;2023-05-23T13:20:26;100225.31;;;19.03;91.12
15382;BME280;7789;51.364;12.358;2023-05-23T13:25:34;100222.03;;;19.01;90.71
15382;BME280;7789;51.364;12.358;2023-05-23T13:30:39;100223.31;;;18.90;91.08
15382;BME280;7789;51.364;12.358;2023-05-23T13:35:50;100232.81;;;18.85;90.80
15382;BME280;7789;51.364;12.358;2023-05-23T13:40:57;100241.28;;;18.80;91.25
15382;BME280;7789;51.364;12.358;2023-05-23T13:46:08;100250.50;;;18.70;91.00
15382;BME280;7789;51.364;12.358;2023-05-23T13:51:20;100256.06;;;18.61;91.17
15382;BME280;7789;51.364;12.358;2023-05-23T13:56:31;100264.13;;;18.45;90.86
15382;BME280;7789;51.364;12.358;2023-05-23T14:01:36;100268.34;;;18.39;90.99
15382;BME280;7789;51.364;12.358;2023-05-23T14:06:42;100275.09;;;18.42;91.04
15382;BME280;7789;51.364;12.358;2023-05-23T14:11:50;100280.25;;;18.35;91.17
15382;BME280;7789;51.364;12.358;2023-05-23T14:16:57;100289.91;;;18.28;91.29
15382;BME280;7789;51.364;12.358;2023-05-23T14:22:05;100288.75;;;18.23;91.60
15382;BME280;7789;51.364;12.358;2023-05-23T14:27:18;100290.13;;;18.19;92.44
15382;BME280;7789;51.364;12.358;2023-05-23T14:32:25;100287.97;;;18.22;91.17
15382;BME280;7789;51.364;12.358;2023-05-23T14:37:30;100303.88;;;18.14;90.35
15382;BME280;7789;51.364;12.358;2023-05-23T14:42:57;100304.59;;;18.08;91.20
15382;BME280;7789;51.364;12.358;2023-05-23T14:48:13;100312.75;;;17.99;90.85
15382;BME280;7789;51.364;12.358;2023-05-23T14:53:47;100323.53;;;17.89;90.59
15382;BME280;7789;51.364;12.358;2023-05-23T14:59:03;100330.91;;;17.71;90.16
15382;BME280;7789;51.364;12.358;2023-05-23T15:04:11;100338.72;;;17.57;90.85
15382;BME280;7789;51.364;12.358;2023-05-23T15:09:39;100343.13;;;17.64;90.14
15382;BME280;7789;51.364;12.358;2023-05-23T15:14:45;100343.53;;;17.45;90.61
15382;BME280;7789;51.364;12.358;2023-05-23T15:19:53;100351.00;;;17.34;90.65
15382;BME280;7789;51.364;12.358;2023-05-23T15:25:01;100360.75;;;17.25;91.23
15382;BME280;7789;51.364;12.358;2023-05-23T15:30:13;100360.09;;;17.15;91.79
15382;BME280;7789;51.364;12.358;2023-05-23T15:35:22;100376.78;;;17.00;91.18
15382;BME280;7789;51.364;12.358;2023-05-23T15:40:29;100376.13;;;16.90;91.39
15382;BME280;7789;51.364;12.358;2023-05-23T15:45:35;100384.72;;;16.84;91.60
15382;BME280;7789;51.364;12.358;2023-05-23T15:50:43;100395.09;;;16.77;91.75
15382;BME280;7789;51.364;12.358;2023-05-23T15:55:48;100396.59;;;16.64;91.88
15382;BME280;7789;51.364;12.358;2023-05-23T16:00:57;100399.72;;;16.52;91.88
15382;BME280;7789;51.364;12.358;2023-05-23T16:06:06;100396.88;;;16.45;92.53
15382;BME280;7789;51.364;12.358;2023-05-23T16:11:29;100397.50;;;16.39;92.62
15382;BME280;7789;51.364;12.358;2023-05-23T16:16:38;100407.38;;;16.29;92.53
15382;BME280;7789;51.364;12.358;2023-05-23T16:21:45;100397.44;;;16.23;91.86
15382;BME280;7789;51.364;12.358;2023-05-23T16:26:51;100395.59;;;16.16;92.40
15382;BME280;7789;51.364;12.358;2023-05-23T16:32:06;100402.84;;;16.14;92.33
15382;BME280;7789;51.364;12.358;2023-05-23T16:37:13;100410.09;;;16.04;91.85
15382;BME280;7789;51.364;12.358;2023-05-23T16:42:19;100404.94;;;16.02;91.57
15382;BME280;7789;51.364;12.358;2023-05-23T16:47:28;100409.03;;;15.97;92.64
15382;BME280;7789;51.364;12.358;2023-05-23T16:52:34;100410.88;;;15.96;92.20
15382;BME280;7789;51.364;12.358;2023-05-23T16:57:40;100413.34;;;15.98;92.26
15382;BME280;7789;51.364;12.358;2023-05-23T17:03:10;100426.38;;;15.99;91.83
15382;BME280;7789;51.364;12.358;2023-05-23T17:08:18;100421.41;;;15.96;90.87
15382;BME280;7789;51.364;12.358;2023-05-23T17:13:33;100421.41;;;15.96;91.06
15382;BME280;7789;51.364;12.358;2023-05-23T17:18:39;100423.06;;;15.97;91.20
15382;BME280;7789;51.364;12.358;2023-05-23T17:23:50;100437.72;;;16.00;90.99
15382;BME280;7789;51.364;12.358;2023-05-23T17:28:55;100437.59;;;16.01;90.88
15382;BME280;7789;51.364;12.358;2023-05-23T17:34:11;100447.16;;;16.02;90.94
15382;BME280;7789;51.364;12.358;2023-05-23T17:39:23;100451.44;;;16.03;90.51
15382;BME280;7789;51.364;12.358;2023-05-23T17:44:27;100462.00;;;16.03;90.04
15382;BME280;7789;51.364;12.358;2023-05-23T17:49:45;100465.78;;;16.01;89.84
15382;BME280;7789;51.364;12.358;2023-05-23T17:54:50;100463.97;;;16.01;89.48
15382;BME280;7789;51.364;12.358;2023-05-23T18:00:06;100461.47;;;16.00;89.06
15382;BME280;7789;51.364;12.358;2023-05-23T18:05:17;100461.31;;;16.01;88.75
15382;BME280;7789;51.364;12.358;2023-05-23T18:10:28;100461.66;;;15.98;87.82
15382;BME280;7789;51.364;12.358;2023-05-23T18:15:57;100468.72;;;15.98;87.51
15382;BME280;7789;51.364;12.358;2023-05-23T18:21:03;100465.09;;;15.99;86.68
15382;BME280;7789;51.364;12.358;2023-05-23T18:26:08;100467.72;;;15.99;86.62
15382;BME280;7789;51.364;12.358;2023-05-23T18:31:16;100474.97;;;15.97;85.02
15382;BME280;7789;51.364;12.358;2023-05-23T18:36:27;100488.00;;;15.98;84.72
15382;BME280;7789;51.364;12.358;2023-05-23T18:41:42;100493.97;;;16.00;83.90
15382;BME280;7789;51.364;12.358;2023-05-23T18:46:54;100498.25;;;16.01;83.77
15382;BME280;7789;51.364;12.358;2023-05-23T18:52:01;100508.94;;;16.00;83.50
15382;BME280;7789;51.364;12.358;2023-05-23T18:57:07;100518.69;;;15.99;82.06
15382;BME280;7789;51.364;12.358;2023-05-23T19:02:14;100520.34;;;16.00;81.52
15382;BME280;7789;51.364;12.358;2023-05-23T19:07:22;100533.84;;;15.97;81.34
15382;BME280;7789;51.364;12.358;2023-05-23T19:12:31;100538.75;;;15.92;79.79
15382;BME280;7789;51.364;12.358;2023-05-23T19:17:39;100548.09;;;15.87;78.28
15382;BME280;7789;51.364;12.358;2023-05-23T19:22:48;100548.25;;;15.85;75.92
15382;BME280;7789;51.364;12.358;2023-05-23T19:27:59;100557.16;;;15.84;75.95
15382;BME280;7789;51.364;12.358;2023-05-23T19:33:17;100558.25;;;15.82;75.52
15382;BME280;7789;51.364;12.358;2023-05-23T19:38:24;100565.69;;;15.78;74.80
15382;BME280;7789;51.364;12.358;2023-05-23T19:43:30;100574.03;;;15.74;74.72
15382;BME280;7789;51.364;12.358;2023-05-23T19:48:37;100579.63;;;15.71;74.82
15382;BME280;7789;51.364;12.358;2023-05-23T19:53:43;100577.28;;;15.68;75.05
15382;BME280;7789;51.364;12.358;2023-05-23T19:58:51;100580.22;;;15.65;74.46
15382;BME280;7789;51.364;12.358;2023-05-23T20:03:56;100593.03;;;15.60;74.90
15382;BME280;7789;51.364;12.358;2023-05-23T20:09:03;100597.41;;;15.51;74.83
15382;BME280;7789;51.364;12.358;2023-05-23T20:14:16;100600.72;;;15.36;75.40
15382;BME280;7789;51.364;12.358;2023-05-23T20:19:20;100604.94;;;15.19;75.67
15382;BME280;7789;51.364;12.358;2023-05-23T20:24:26;100613.34;;;15.05;75.13
15382;BME280;7789;51.364;12.358;2023-05-23T20:29:35;100618.00;;;14.94;75.57
15382;BME280;7789;51.364;12.358;2023-05-23T20:34:42;100624.00;;;14.86;75.60
15382;BME280;7789;51.364;12.358;2023-05-23T20:39:51;100624.28;;;14.83;75.81
15382;BME280;7789;51.364;12.358;2023-05-23T20:44:59;100627.50;;;14.78;76.44
15382;BME280;7789;51.364;12.358;2023-05-23T20:50:07;100644.59;;;14.74;76.19
15382;BME280;7789;51.364;12.358;2023-05-23T20:55:14;100643.88;;;14.72;76.20
15382;BME280;7789;51.364;12.358;2023-05-23T21:00:19;100644.16;;;14.69;76.18
15382;BME280;7789;51.364;12.358;2023-05-23T21:05:26;100636.72;;;14.64;76.77
15382;BME280;7789;51.364;12.358;2023-05-23T21:10:34;100650.16;;;14.61;76.50
15382;BME280;7789;51.364;12.358;2023-05-23T21:15:39;100655.69;;;14.58;77.06
15382;BME280;7789;51.364;12.358;2023-05-23T21:20:46;100652.50;;;14.55;76.90
15382;BME280;7789;51.364;12.358;2023-05-23T21:25:56;100664.03;;;14.54;77.50
15382;BME280;7789;51.364;12.358;2023-05-23T21:31:05;100648.00;;;14.47;77.05
15382;BME280;7789;51.364;12.358;2023-05-23T21:36:11;100662.94;;;14.47;77.10
15382;BME280;7789;51.364;12.358;2023-05-23T21:41:19;100666.25;;;14.49;77.51
15382;BME280;7789;51.364;12.358;2023-05-23T21:46:27;100668.75;;;14.50;77.95
15382;BME280;7789;51.364;12.358;2023-05-23T21:51:38;100661.97;;;14.48;78.06
15382;BME280;7789;51.364;12.358;2023-05-23T21:56:44;100669.59;;;14.41;77.97
15382;BME280;7789;51.364;12.358;2023-05-23T22:01:49;100687.31;;;14.39;78.41
15382;BME280;7789;51.364;12.358;2023-05-23T22:06:55;100678.63;;;14.39;78.38
15382;BME280;7789;51.364;12.358;2023-05-23T22:12:02;100690.09;;;14.38;78.21
15382;BME280;7789;51.364;12.358;2023-05-23T22:17:06;100687.47;;;14.38;77.45
15382;BME280;7789;51.364;12.358;2023-05-23T22:22:11;100692.59;;;14.39;77.08
15382;BME280;7789;51.364;12.358;2023-05-23T22:27:18;100685.13;;;14.35;76.04
15382;BME280;7789;51.364;12.358;2023-05-23T22:32:25;100682.78;;;14.32;74.62
15382;BME280;7789;51.364;12.358;2023-05-23T22:37:29;100685.13;;;14.25;73.58
15382;BME280;7789;51.364;12.358;2023-05-23T22:42:35;100683.75;;;14.21;72.70
15382;BME280;7789;51.364;12.358;2023-05-23T22:47:43;100687.47;;;14.09;72.44
15382;BME280;7789;51.364;12.358;2023-05-23T22:52:51;100690.66;;;14.03;72.60
15382;BME280;7789;51.364;12.358;2023-05-23T22:57:59;100689.03;;;13.93;72.34
15382;BME280;7789;51.364;12.358;2023-05-23T23:03:03;100698.97;;;13.80;72.64
15382;BME280;7789;51.364;12.358;2023-05-23T23:08:08;100697.59;;;13.66;72.43
15382;BME280;7789;51.364;12.358;2023-05-23T23:13:15;100708.19;;;13.55;72.22
15382;BME280;7789;51.364;12.358;2023-05-23T23:18:20;100714.69;;;13.42;72.48
15382;BME280;7789;51.364;12.358;2023-05-23T23:23:26;100714.50;;;13.34;72.24
15382;BME280;7789;51.364;12.358;2023-05-23T23:28:38;100719.22;;;13.30;71.95
15382;BME280;7789;51.364;12.358;2023-05-23T23:33:45;100721.53;;;13.24;72.50
15382;BME280;7789;51.364;12.358;2023-05-23T23:38:51;100715.34;;;13.25;72.14
15382;BME280;7789;51.364;12.358;2023-05-23T23:43:59;100721.41;;;13.25;72.37
15382;BME280;7789;51.364;12.358;2023-05-23T23:49:05;100718.63;;;13.17;73.20
15382;BME280;7789;51.364;12.358;2023-05-23T23:54:12;100721.34;;;13.06;73.67
15382;BME280;7789;51.364;12.358;2023-05-23T23:59:19;100720.63;;;13.04;73.38
